sensor_id;sensor_type;location;lat;lon;timestamp;P1;durP1;ratioP1;P2;durP2;ratioP2
45318;SDS011;31057;48.498;32.260;2023-02-18T08:19:27;108.30;;;60.88;;
45318;SDS011;31057;48.498;32.260;2023-02-18T08:21:33;116.65;;;66.10;;
45318;SDS011;31057;48.498;32.260;2023-02-18T08:23:35;95.10;;;50.45;;
45318;SDS011;31057;48.498;32.260;2023-02-18T08:25:36;120.30;;;63.10;;
45318;SDS011;31057;48.498;32.260;2023-02-18T08:27:38;116.80;;;61.45;;
45318;SDS011;31057;48.498;32.260;2023-02-18T08:29:40;108.57;;;54.05;;
45318;SDS011;31057;48.498;32.260;2023-02-18T08:31:42;89.03;;;47.72;;
45318;SDS011;31057;48.498;32.260;2023-02-18T08:33:45;84.03;;;47.00;;
45318;SDS011;31057;48.498;32.260;2023-02-18T08:35:47;79.80;;;44.20;;
45318;SDS011;31057;48.498;32.260;2023-02-18T08:37:51;80.90;;;42.97;;
45318;SDS011;31057;48.498;32.260;2023-02-18T08:39:55;69.25;;;37.92;;
45318;SDS011;31057;48.498;32.260;2023-02-18T08:43:58;55.43;;;32.03;;
45318;SDS011;31057;48.498;32.260;2023-02-18T08:46:00;54.05;;;32.30;;
45318;SDS011;31057;48.498;32.260;2023-02-18T08:48:03;56.65;;;32.85;;
45318;SDS011;31057;48.498;32.260;2023-02-18T08:50:20;62.17;;;38.00;;
45318;SDS011;31057;48.498;32.260;2023-02-18T08:52:26;58.10;;;34.88;;
45318;SDS011;31057;48.498;32.260;2023-02-18T08:54:28;47.45;;;27.50;;
45318;SDS011;31057;48.498;32.260;2023-02-18T08:56:30;58.65;;;35.33;;
45318;SDS011;31057;48.498;32.260;2023-02-18T08:58:33;50.25;;;30.02;;
45318;SDS011;31057;48.498;32.260;2023-02-18T09:00:38;57.45;;;32.40;;
45318;SDS011;31057;48.498;32.260;2023-02-18T09:02:41;54.05;;;31.60;;
45318;SDS011;31057;48.498;32.260;2023-02-18T09:04:43;45.75;;;29.55;;
45318;SDS011;31057;48.498;32.260;2023-02-18T09:06:46;47.00;;;29.17;;
45318;SDS011;31057;48.498;32.260;2023-02-18T09:08:48;43.50;;;27.40;;
45318;SDS011;31057;48.498;32.260;2023-02-18T09:10:54;49.78;;;27.67;;
45318;SDS011;31057;48.498;32.260;2023-02-18T09:13:00;45.80;;;26.08;;
45318;SDS011;31057;48.498;32.260;2023-02-18T09:15:02;48.45;;;27.80;;
45318;SDS011;31057;48.498;32.260;2023-02-18T09:17:05;50.97;;;30.00;;
45318;SDS011;31057;48.498;32.260;2023-02-18T09:19:07;49.00;;;33.08;;
45318;SDS011;31057;48.498;32.260;2023-02-18T09:21:13;49.40;;;32.53;;
45318;SDS011;31057;48.498;32.260;2023-02-18T09:23:17;51.90;;;31.58;;
45318;SDS011;31057;48.498;32.260;2023-02-18T09:25:19;48.35;;;26.48;;
45318;SDS011;31057;48.498;32.260;2023-02-18T09:27:20;53.40;;;28.92;;
45318;SDS011;31057;48.498;32.260;2023-02-18T09:29:22;38.88;;;24.38;;
45318;SDS011;31057;48.498;32.260;2023-02-18T09:31:25;49.72;;;26.73;;
45318;SDS011;31057;48.498;32.260;2023-02-18T09:33:28;54.72;;;32.63;;
45318;SDS011;31057;48.498;32.260;2023-02-18T09:35:29;51.97;;;33.08;;
45318;SDS011;31057;48.498;32.260;2023-02-18T09:37:32;55.72;;;32.08;;
45318;SDS011;31057;48.498;32.260;2023-02-18T09:39:34;59.70;;;37.40;;
45318;SDS011;31057;48.498;32.260;2023-02-18T09:41:37;63.70;;;34.42;;
45318;SDS011;31057;48.498;32.260;2023-02-18T09:43:46;60.00;;;33.35;;
45318;SDS011;31057;48.498;32.260;2023-02-18T09:45:50;58.88;;;37.72;;
45318;SDS011;31057;48.498;32.260;2023-02-18T09:47:53;60.42;;;34.42;;
45318;SDS011;31057;48.498;32.260;2023-02-18T09:49:57;56.55;;;33.85;;
45318;SDS011;31057;48.498;32.260;2023-02-18T09:52:06;55.67;;;31.52;;
45318;SDS011;31057;48.498;32.260;2023-02-18T09:54:15;54.90;;;32.30;;
45318;SDS011;31057;48.498;32.260;2023-02-18T09:56:20;62.42;;;37.30;;
45318;SDS011;31057;48.498;32.260;2023-02-18T09:58:29;63.15;;;37.10;;
45318;SDS011;31057;48.498;32.260;2023-02-18T10:00:34;57.78;;;34.10;;
45318;SDS011;31057;48.498;32.260;2023-02-18T10:02:39;53.72;;;31.98;;
45318;SDS011;31057;48.498;32.260;2023-02-18T10:04:53;49.08;;;27.50;;
45318;SDS011;31057;48.498;32.260;2023-02-18T10:06:57;52.65;;;27.45;;
45318;SDS011;31057;48.498;32.260;2023-02-18T10:09:01;58.15;;;32.25;;
45318;SDS011;31057;48.498;32.260;2023-02-18T10:11:17;52.72;;;30.70;;
45318;SDS011;31057;48.498;32.260;2023-02-18T10:13:27;58.03;;;31.90;;
45318;SDS011;31057;48.498;32.260;2023-02-18T10:15:31;50.45;;;28.52;;
45318;SDS011;31057;48.498;32.260;2023-02-18T10:17:34;51.15;;;32.17;;
45318;SDS011;31057;48.498;32.260;2023-02-18T10:19:38;41.63;;;25.40;;
45318;SDS011;31057;48.498;32.260;2023-02-18T10:21:41;49.05;;;28.23;;
45318;SDS011;31057;48.498;32.260;2023-02-18T10:23:53;44.05;;;27.45;;
45318;SDS011;31057;48.498;32.260;2023-02-18T10:26:02;36.47;;;20.20;;
45318;SDS011;31057;48.498;32.260;2023-02-18T10:28:08;45.83;;;28.45;;
45318;SDS011;31057;48.498;32.260;2023-02-18T10:32:35;45.17;;;28.05;;
45318;SDS011;31057;48.498;32.260;2023-02-18T10:34:59;45.38;;;28.60;;
45318;SDS011;31057;48.498;32.260;2023-02-18T10:39:49;42.95;;;27.67;;
45318;SDS011;31057;48.498;32.260;2023-02-18T10:51:32;30.02;;;18.88;;
45318;SDS011;31057;48.498;32.260;2023-02-18T10:53:38;26.73;;;16.65;;
45318;SDS011;31057;48.498;32.260;2023-02-18T10:55:44;24.38;;;19.05;;
45318;SDS011;31057;48.498;32.260;2023-02-18T10:57:48;24.50;;;15.32;;
45318;SDS011;31057;48.498;32.260;2023-02-18T10:59:56;26.67;;;19.23;;
45318;SDS011;31057;48.498;32.260;2023-02-18T11:02:01;28.33;;;18.08;;
45318;SDS011;31057;48.498;32.260;2023-02-18T11:04:15;22.05;;;14.85;;
45318;SDS011;31057;48.498;32.260;2023-02-18T11:06:20;21.92;;;16.95;;
45318;SDS011;31057;48.498;32.260;2023-02-18T11:08:41;19.05;;;13.77;;
45318;SDS011;31057;48.498;32.260;2023-02-18T11:10:45;22.25;;;14.93;;
45318;SDS011;31057;48.498;32.260;2023-02-18T11:12:49;20.77;;;16.35;;
45318;SDS011;31057;48.498;32.260;2023-02-18T11:15:05;15.88;;;11.07;;
45318;SDS011;31057;48.498;32.260;2023-02-18T11:17:15;17.53;;;12.33;;
45318;SDS011;31057;48.498;32.260;2023-02-18T11:19:37;18.90;;;13.38;;
45318;SDS011;31057;48.498;32.260;2023-02-18T11:21:40;15.52;;;11.52;;
45318;SDS011;31057;48.498;32.260;2023-02-18T11:23:46;14.57;;;11.00;;
45318;SDS011;31057;48.498;32.260;2023-02-18T11:27:59;11.88;;;8.20;;
45318;SDS011;31057;48.498;32.260;2023-02-18T11:30:13;13.88;;;9.73;;
45318;SDS011;31057;48.498;32.260;2023-02-18T11:32:17;17.30;;;11.00;;
45318;SDS011;31057;48.498;32.260;2023-02-18T11:34:20;14.30;;;10.32;;
45318;SDS011;31057;48.498;32.260;2023-02-18T11:36:34;19.10;;;10.38;;
45318;SDS011;31057;48.498;32.260;2023-02-18T11:38:40;16.15;;;11.77;;
45318;SDS011;31057;48.498;32.260;2023-02-18T11:40:52;15.23;;;10.65;;
45318;SDS011;31057;48.498;32.260;2023-02-18T11:47:34;10.43;;;6.68;;
45318;SDS011;31057;48.498;32.260;2023-02-18T11:49:37;9.52;;;7.10;;
45318;SDS011;31057;48.498;32.260;2023-02-18T11:51:40;13.25;;;7.25;;
45318;SDS011;31057;48.498;32.260;2023-02-18T11:53:54;9.10;;;5.13;;
45318;SDS011;31057;48.498;32.260;2023-02-18T11:56:02;8.65;;;6.15;;
45318;SDS011;31057;48.498;32.260;2023-02-18T11:58:08;8.10;;;6.78;;
45318;SDS011;31057;48.498;32.260;2023-02-18T12:00:21;11.05;;;8.02;;
45318;SDS011;31057;48.498;32.260;2023-02-18T12:02:38;12.63;;;9.10;;
45318;SDS011;31057;48.498;32.260;2023-02-18T12:04:52;14.85;;;9.57;;
45318;SDS011;31057;48.498;32.260;2023-02-18T12:09:37;9.50;;;5.25;;
45318;SDS011;31057;48.498;32.260;2023-02-18T12:11:43;14.50;;;5.45;;
45318;SDS011;31057;48.498;32.260;2023-02-18T12:13:50;11.30;;;5.93;;
45318;SDS011;31057;48.498;32.260;2023-02-18T12:20:52;17.40;;;8.82;;
45318;SDS011;31057;48.498;32.260;2023-02-18T12:23:17;15.93;;;9.65;;
45318;SDS011;31057;48.498;32.260;2023-02-18T12:25:48;11.88;;;8.90;;
45318;SDS011;31057;48.498;32.260;2023-02-18T12:42:08;13.98;;;7.47;;
45318;SDS011;31057;48.498;32.260;2023-02-18T13:07:26;9.75;;;7.90;;
45318;SDS011;31057;48.498;32.260;2023-02-18T13:12:40;17.60;;;7.82;;
45318;SDS011;31057;48.498;32.260;2023-02-18T13:17:21;13.13;;;4.53;;
45318;SDS011;31057;48.498;32.260;2023-02-18T13:19:31;7.25;;;4.45;;
45318;SDS011;31057;48.498;32.260;2023-02-18T13:21:48;10.50;;;6.47;;
45318;SDS011;31057;48.498;32.260;2023-02-18T13:26:10;10.63;;;5.10;;
45318;SDS011;31057;48.498;32.260;2023-02-18T13:30:30;12.57;;;6.88;;
45318;SDS011;31057;48.498;32.260;2023-02-18T13:39:27;13.32;;;8.00;;
45318;SDS011;31057;48.498;32.260;2023-02-18T13:41:33;13.32;;;8.95;;
45318;SDS011;31057;48.498;32.260;2023-02-18T13:43:40;11.20;;;6.10;;
45318;SDS011;31057;48.498;32.260;2023-02-18T13:48:21;16.17;;;7.75;;
45318;SDS011;31057;48.498;32.260;2023-02-18T13:50:28;17.73;;;8.80;;
45318;SDS011;31057;48.498;32.260;2023-02-18T13:52:33;14.15;;;8.38;;
45318;SDS011;31057;48.498;32.260;2023-02-18T13:54:38;15.07;;;7.88;;
45318;SDS011;31057;48.498;32.260;2023-02-18T13:56:52;13.82;;;9.13;;
45318;SDS011;31057;48.498;32.260;2023-02-18T14:01:24;12.67;;;9.83;;
45318;SDS011;31057;48.498;32.260;2023-02-18T14:05:45;9.60;;;6.70;;
45318;SDS011;31057;48.498;32.260;2023-02-18T14:14:52;15.10;;;10.50;;
45318;SDS011;31057;48.498;32.260;2023-02-18T14:19:26;16.05;;;8.85;;
45318;SDS011;31057;48.498;32.260;2023-02-18T14:21:36;16.20;;;7.97;;
45318;SDS011;31057;48.498;32.260;2023-02-18T14:26:45;21.40;;;7.05;;
45318;SDS011;31057;48.498;32.260;2023-02-18T14:30:52;7.85;;;4.13;;
45318;SDS011;31057;48.498;32.260;2023-02-18T14:32:55;14.40;;;6.95;;
45318;SDS011;31057;48.498;32.260;2023-02-18T14:35:07;12.95;;;7.40;;
45318;SDS011;31057;48.498;32.260;2023-02-18T14:51:22;13.73;;;7.63;;
45318;SDS011;31057;48.498;32.260;2023-02-18T14:53:25;18.92;;;9.73;;
45318;SDS011;31057;48.498;32.260;2023-02-18T14:55:29;14.25;;;7.35;;
45318;SDS011;31057;48.498;32.260;2023-02-18T14:57:44;15.43;;;8.18;;
45318;SDS011;31057;48.498;32.260;2023-02-18T14:59:50;15.40;;;8.43;;
45318;SDS011;31057;48.498;32.260;2023-02-18T15:01:59;11.95;;;7.35;;
45318;SDS011;31057;48.498;32.260;2023-02-18T15:06:03;14.90;;;8.52;;
45318;SDS011;31057;48.498;32.260;2023-02-18T15:08:22;16.52;;;8.77;;
45318;SDS011;31057;48.498;32.260;2023-02-18T15:12:52;12.18;;;8.90;;
45318;SDS011;31057;48.498;32.260;2023-02-18T15:14:56;15.75;;;9.05;;
45318;SDS011;31057;48.498;32.260;2023-02-18T15:17:04;16.80;;;9.98;;
45318;SDS011;31057;48.498;32.260;2023-02-18T15:19:12;18.30;;;9.32;;
45318;SDS011;31057;48.498;32.260;2023-02-18T15:21:21;18.00;;;8.93;;
45318;SDS011;31057;48.498;32.260;2023-02-18T15:23:28;14.10;;;8.20;;
45318;SDS011;31057;48.498;32.260;2023-02-18T15:25:30;12.95;;;10.23;;
45318;SDS011;31057;48.498;32.260;2023-02-18T15:27:33;17.85;;;13.25;;
45318;SDS011;31057;48.498;32.260;2023-02-18T15:29:38;16.95;;;10.43;;
45318;SDS011;31057;48.498;32.260;2023-02-18T15:31:40;13.88;;;9.65;;
45318;SDS011;31057;48.498;32.260;2023-02-18T15:35:44;16.58;;;8.63;;
45318;SDS011;31057;48.498;32.260;2023-02-18T15:37:51;16.73;;;10.13;;
45318;SDS011;31057;48.498;32.260;2023-02-18T15:39:54;18.70;;;11.40;;
45318;SDS011;31057;48.498;32.260;2023-02-18T15:44:17;15.70;;;9.27;;
45318;SDS011;31057;48.498;32.260;2023-02-18T15:46:24;14.45;;;6.93;;
45318;SDS011;31057;48.498;32.260;2023-02-18T15:48:31;14.35;;;8.43;;
45318;SDS011;31057;48.498;32.260;2023-02-18T15:50:49;13.43;;;7.85;;
45318;SDS011;31057;48.498;32.260;2023-02-18T15:52:54;10.70;;;5.63;;
45318;SDS011;31057;48.498;32.260;2023-02-18T15:55:05;12.40;;;5.03;;
45318;SDS011;31057;48.498;32.260;2023-02-18T15:57:14;9.30;;;3.95;;
45318;SDS011;31057;48.498;32.260;2023-02-18T15:59:27;13.48;;;3.63;;
45318;SDS011;31057;48.498;32.260;2023-02-18T16:01:32;6.45;;;3.65;;
45318;SDS011;31057;48.498;32.260;2023-02-18T16:03:44;7.75;;;3.83;;
45318;SDS011;31057;48.498;32.260;2023-02-18T16:05:47;12.70;;;6.20;;
45318;SDS011;31057;48.498;32.260;2023-02-18T16:07:55;9.25;;;4.35;;
45318;SDS011;31057;48.498;32.260;2023-02-18T16:12:30;15.63;;;6.35;;
45318;SDS011;31057;48.498;32.260;2023-02-18T16:14:34;11.65;;;6.25;;
45318;SDS011;31057;48.498;32.260;2023-02-18T16:16:53;15.30;;;8.50;;
45318;SDS011;31057;48.498;32.260;2023-02-18T16:19:21;18.60;;;8.82;;
45318;SDS011;31057;48.498;32.260;2023-02-18T16:21:29;14.80;;;9.70;;
45318;SDS011;31057;48.498;32.260;2023-02-18T16:23:43;13.73;;;9.13;;
45318;SDS011;31057;48.498;32.260;2023-02-18T16:25:47;11.60;;;7.47;;
45318;SDS011;31057;48.498;32.260;2023-02-18T16:27:51;18.60;;;8.68;;
45318;SDS011;31057;48.498;32.260;2023-02-18T16:29:53;13.55;;;6.38;;
45318;SDS011;31057;48.498;32.260;2023-02-18T16:32:02;12.95;;;6.03;;
45318;SDS011;31057;48.498;32.260;2023-02-18T16:34:04;9.10;;;3.95;;
45318;SDS011;31057;48.498;32.260;2023-02-18T16:38:14;8.02;;;4.60;;
45318;SDS011;31057;48.498;32.260;2023-02-18T16:40:23;11.88;;;6.05;;
45318;SDS011;31057;48.498;32.260;2023-02-18T16:42:30;12.60;;;6.55;;
45318;SDS011;31057;48.498;32.260;2023-02-18T16:44:32;16.52;;;10.07;;
45318;SDS011;31057;48.498;32.260;2023-02-18T16:48:40;15.77;;;9.75;;
45318;SDS011;31057;48.498;32.260;2023-02-18T16:50:47;16.23;;;11.13;;
45318;SDS011;31057;48.498;32.260;2023-02-18T16:52:51;21.02;;;11.38;;
45318;SDS011;31057;48.498;32.260;2023-02-18T16:56:58;19.83;;;10.07;;
45318;SDS011;31057;48.498;32.260;2023-02-18T16:59:00;16.08;;;9.30;;
45318;SDS011;31057;48.498;32.260;2023-02-18T17:01:02;20.40;;;8.93;;
45318;SDS011;31057;48.498;32.260;2023-02-18T17:05:06;8.98;;;4.00;;
45318;SDS011;31057;48.498;32.260;2023-02-18T17:07:26;8.50;;;3.30;;
45318;SDS011;31057;48.498;32.260;2023-02-18T17:11:36;8.95;;;2.90;;
45318;SDS011;31057;48.498;32.260;2023-02-18T17:13:38;6.55;;;2.85;;
45318;SDS011;31057;48.498;32.260;2023-02-18T17:15:41;9.10;;;3.42;;
45318;SDS011;31057;48.498;32.260;2023-02-18T17:17:48;9.65;;;4.28;;
45318;SDS011;31057;48.498;32.260;2023-02-18T17:20:10;6.38;;;2.67;;
45318;SDS011;31057;48.498;32.260;2023-02-18T17:22:42;5.93;;;2.70;;
45318;SDS011;31057;48.498;32.260;2023-02-18T17:24:50;9.48;;;3.15;;
45318;SDS011;31057;48.498;32.260;2023-02-18T17:26:55;9.35;;;3.10;;
45318;SDS011;31057;48.498;32.260;2023-02-18T17:29:00;8.40;;;2.95;;
45318;SDS011;31057;48.498;32.260;2023-02-18T17:31:08;9.60;;;3.22;;
45318;SDS011;31057;48.498;32.260;2023-02-18T17:35:20;6.95;;;4.00;;
45318;SDS011;31057;48.498;32.260;2023-02-18T17:37:23;14.65;;;6.15;;
45318;SDS011;31057;48.498;32.260;2023-02-18T17:39:32;9.38;;;5.40;;
45318;SDS011;31057;48.498;32.260;2023-02-18T17:41:43;10.38;;;4.35;;
45318;SDS011;31057;48.498;32.260;2023-02-18T17:43:45;10.00;;;4.07;;
45318;SDS011;31057;48.498;32.260;2023-02-18T17:45:51;13.07;;;6.65;;
45318;SDS011;31057;48.498;32.260;2023-02-18T17:48:00;13.90;;;9.18;;
45318;SDS011;31057;48.498;32.260;2023-02-18T17:50:06;16.23;;;9.63;;
45318;SDS011;31057;48.498;32.260;2023-02-18T17:52:28;17.00;;;10.23;;
45318;SDS011;31057;48.498;32.260;2023-02-18T17:54:34;22.05;;;11.13;;
45318;SDS011;31057;48.498;32.260;2023-02-18T17:58:41;19.67;;;10.25;;
45318;SDS011;31057;48.498;32.260;2023-02-18T18:00:53;12.93;;;7.40;;
45318;SDS011;31057;48.498;32.260;2023-02-18T18:03:00;12.40;;;5.78;;
45318;SDS011;31057;48.498;32.260;2023-02-18T18:05:19;6.50;;;3.00;;
45318;SDS011;31057;48.498;32.260;2023-02-18T18:07:30;7.32;;;2.63;;
45318;SDS011;31057;48.498;32.260;2023-02-18T18:09:36;10.20;;;3.05;;
45318;SDS011;31057;48.498;32.260;2023-02-18T18:11:38;5.63;;;2.60;;
45318;SDS011;31057;48.498;32.260;2023-02-18T18:14:08;6.55;;;3.25;;
45318;SDS011;31057;48.498;32.260;2023-02-18T18:16:16;7.90;;;2.55;;
45318;SDS011;31057;48.498;32.260;2023-02-18T18:18:22;6.25;;;3.00;;
45318;SDS011;31057;48.498;32.260;2023-02-18T18:20:25;6.22;;;2.80;;
45318;SDS011;31057;48.498;32.260;2023-02-18T18:22:31;10.73;;;3.13;;
45318;SDS011;31057;48.498;32.260;2023-02-18T18:24:39;7.40;;;3.00;;
45318;SDS011;31057;48.498;32.260;2023-02-18T18:26:44;7.93;;;2.80;;
45318;SDS011;31057;48.498;32.260;2023-02-18T18:28:52;6.28;;;2.72;;
45318;SDS011;31057;48.498;32.260;2023-02-18T18:30:57;9.38;;;3.70;;
45318;SDS011;31057;48.498;32.260;2023-02-18T18:33:13;10.43;;;3.22;;
45318;SDS011;31057;48.498;32.260;2023-02-18T18:35:22;5.13;;;3.00;;
45318;SDS011;31057;48.498;32.260;2023-02-18T18:37:32;7.57;;;3.22;;
45318;SDS011;31057;48.498;32.260;2023-02-18T18:39:34;7.65;;;2.85;;
45318;SDS011;31057;48.498;32.260;2023-02-18T18:41:45;8.00;;;3.60;;
45318;SDS011;31057;48.498;32.260;2023-02-18T18:43:50;6.80;;;3.38;;
45318;SDS011;31057;48.498;32.260;2023-02-18T18:46:04;12.75;;;3.90;;
45318;SDS011;31057;48.498;32.260;2023-02-18T18:48:06;14.30;;;3.67;;
45318;SDS011;31057;48.498;32.260;2023-02-18T18:50:08;6.68;;;3.13;;
45318;SDS011;31057;48.498;32.260;2023-02-18T18:54:16;6.47;;;3.05;;
45318;SDS011;31057;48.498;32.260;2023-02-18T18:56:18;6.75;;;2.65;;
45318;SDS011;31057;48.498;32.260;2023-02-18T19:00:29;8.23;;;2.85;;
45318;SDS011;31057;48.498;32.260;2023-02-18T19:02:37;12.40;;;3.80;;
45318;SDS011;31057;48.498;32.260;2023-02-18T19:04:44;10.38;;;4.00;;
45318;SDS011;31057;48.498;32.260;2023-02-18T19:06:52;9.25;;;3.28;;
45318;SDS011;31057;48.498;32.260;2023-02-18T19:08:59;9.85;;;3.25;;
45318;SDS011;31057;48.498;32.260;2023-02-18T19:11:01;16.80;;;4.70;;
45318;SDS011;31057;48.498;32.260;2023-02-18T19:13:10;17.13;;;4.88;;
45318;SDS011;31057;48.498;32.260;2023-02-18T19:15:24;6.35;;;2.90;;
45318;SDS011;31057;48.498;32.260;2023-02-18T19:17:26;12.48;;;4.07;;
45318;SDS011;31057;48.498;32.260;2023-02-18T19:19:37;13.20;;;3.95;;
45318;SDS011;31057;48.498;32.260;2023-02-18T19:21:39;8.73;;;4.85;;
45318;SDS011;31057;48.498;32.260;2023-02-18T19:23:45;8.07;;;5.13;;
45318;SDS011;31057;48.498;32.260;2023-02-18T19:25:53;12.38;;;4.45;;
45318;SDS011;31057;48.498;32.260;2023-02-18T19:28:02;9.52;;;3.97;;
45318;SDS011;31057;48.498;32.260;2023-02-18T19:30:08;10.50;;;4.03;;
45318;SDS011;31057;48.498;32.260;2023-02-18T19:32:24;7.45;;;3.40;;
45318;SDS011;31057;48.498;32.260;2023-02-18T19:34:32;7.25;;;2.72;;
45318;SDS011;31057;48.498;32.260;2023-02-18T19:36:37;5.53;;;3.13;;
45318;SDS011;31057;48.498;32.260;2023-02-18T19:38:41;8.80;;;3.47;;
45318;SDS011;31057;48.498;32.260;2023-02-18T19:40:50;12.07;;;3.22;;
45318;SDS011;31057;48.498;32.260;2023-02-18T19:43:04;12.85;;;3.78;;
45318;SDS011;31057;48.498;32.260;2023-02-18T19:45:17;7.85;;;3.10;;
45318;SDS011;31057;48.498;32.260;2023-02-18T19:47:21;8.23;;;3.38;;
45318;SDS011;31057;48.498;32.260;2023-02-18T19:49:31;8.82;;;2.67;;
45318;SDS011;31057;48.498;32.260;2023-02-18T19:51:41;6.18;;;3.20;;
45318;SDS011;31057;48.498;32.260;2023-02-18T19:53:43;6.97;;;3.03;;
45318;SDS011;31057;48.498;32.260;2023-02-18T19:55:54;6.85;;;3.63;;
45318;SDS011;31057;48.498;32.260;2023-02-18T19:57:57;7.70;;;2.63;;
45318;SDS011;31057;48.498;32.260;2023-02-18T20:00:00;7.07;;;2.88;;
45318;SDS011;31057;48.498;32.260;2023-02-18T20:02:03;7.45;;;2.90;;
45318;SDS011;31057;48.498;32.260;2023-02-18T20:04:06;9.55;;;2.85;;
45318;SDS011;31057;48.498;32.260;2023-02-18T20:08:14;7.70;;;3.67;;
45318;SDS011;31057;48.498;32.260;2023-02-18T20:12:20;8.40;;;3.03;;
45318;SDS011;31057;48.498;32.260;2023-02-18T20:14:22;6.72;;;3.58;;
45318;SDS011;31057;48.498;32.260;2023-02-18T20:16:27;8.00;;;3.58;;
45318;SDS011;31057;48.498;32.260;2023-02-18T20:18:29;8.55;;;4.97;;
45318;SDS011;31057;48.498;32.260;2023-02-18T20:20:32;15.57;;;7.63;;
45318;SDS011;31057;48.498;32.260;2023-02-18T20:22:33;20.33;;;8.32;;
45318;SDS011;31057;48.498;32.260;2023-02-18T20:24:36;17.08;;;8.85;;
45318;SDS011;31057;48.498;32.260;2023-02-18T20:26:40;14.48;;;7.50;;
45318;SDS011;31057;48.498;32.260;2023-02-18T20:30:44;12.82;;;5.78;;
45318;SDS011;31057;48.498;32.260;2023-02-18T20:32:46;11.00;;;6.30;;
45318;SDS011;31057;48.498;32.260;2023-02-18T20:34:48;12.82;;;5.78;;
45318;SDS011;31057;48.498;32.260;2023-02-18T20:36:50;15.05;;;7.68;;
45318;SDS011;31057;48.498;32.260;2023-02-18T20:38:53;14.80;;;6.38;;
45318;SDS011;31057;48.498;32.260;2023-02-18T20:41:07;8.43;;;5.57;;
45318;SDS011;31057;48.498;32.260;2023-02-18T20:43:15;13.00;;;6.55;;
45318;SDS011;31057;48.498;32.260;2023-02-18T20:45:17;11.95;;;6.70;;
45318;SDS011;31057;48.498;32.260;2023-02-18T20:47:19;12.15;;;6.45;;
45318;SDS011;31057;48.498;32.260;2023-02-18T20:49:21;13.32;;;5.85;;
45318;SDS011;31057;48.498;32.260;2023-02-18T20:51:23;11.82;;;5.18;;
45318;SDS011;31057;48.498;32.260;2023-02-18T20:53:28;8.65;;;3.47;;
45318;SDS011;31057;48.498;32.260;2023-02-18T20:55:31;10.98;;;3.22;;
45318;SDS011;31057;48.498;32.260;2023-02-18T20:57:32;8.00;;;4.28;;
45318;SDS011;31057;48.498;32.260;2023-02-18T20:59:34;10.48;;;4.05;;
45318;SDS011;31057;48.498;32.260;2023-02-18T21:01:36;9.32;;;3.83;;
45318;SDS011;31057;48.498;32.260;2023-02-18T21:03:41;8.40;;;4.22;;
45318;SDS011;31057;48.498;32.260;2023-02-18T21:05:47;8.15;;;4.68;;
45318;SDS011;31057;48.498;32.260;2023-02-18T21:07:55;12.23;;;4.97;;
45318;SDS011;31057;48.498;32.260;2023-02-18T21:09:57;12.43;;;4.82;;
45318;SDS011;31057;48.498;32.260;2023-02-18T21:14:05;5.75;;;2.58;;
45318;SDS011;31057;48.498;32.260;2023-02-18T21:16:07;6.90;;;4.10;;
45318;SDS011;31057;48.498;32.260;2023-02-18T21:18:10;7.13;;;4.00;;
45318;SDS011;31057;48.498;32.260;2023-02-18T21:20:12;10.82;;;4.00;;
45318;SDS011;31057;48.498;32.260;2023-02-18T21:22:14;10.55;;;3.88;;
45318;SDS011;31057;48.498;32.260;2023-02-18T21:24:16;5.93;;;3.60;;
45318;SDS011;31057;48.498;32.260;2023-02-18T21:26:19;12.00;;;3.85;;
45318;SDS011;31057;48.498;32.260;2023-02-18T21:28:23;6.18;;;3.20;;
45318;SDS011;31057;48.498;32.260;2023-02-18T21:30:26;8.38;;;4.03;;
45318;SDS011;31057;48.498;32.260;2023-02-18T21:32:29;10.43;;;3.67;;
45318;SDS011;31057;48.498;32.260;2023-02-18T21:34:31;14.13;;;4.63;;
45318;SDS011;31057;48.498;32.260;2023-02-18T21:36:33;10.45;;;4.35;;
45318;SDS011;31057;48.498;32.260;2023-02-18T21:38:35;7.35;;;4.85;;
45318;SDS011;31057;48.498;32.260;2023-02-18T21:40:38;11.48;;;5.05;;
45318;SDS011;31057;48.498;32.260;2023-02-18T21:42:40;14.75;;;5.00;;
45318;SDS011;31057;48.498;32.260;2023-02-18T21:46:44;9.57;;;4.55;;
45318;SDS011;31057;48.498;32.260;2023-02-18T21:48:46;12.88;;;4.55;;
45318;SDS011;31057;48.498;32.260;2023-02-18T21:51:06;8.65;;;4.45;;
45318;SDS011;31057;48.498;32.260;2023-02-18T21:53:31;9.88;;;4.40;;
45318;SDS011;31057;48.498;32.260;2023-02-18T21:57:35;10.85;;;4.38;;
45318;SDS011;31057;48.498;32.260;2023-02-18T21:59:38;9.23;;;4.28;;
45318;SDS011;31057;48.498;32.260;2023-02-18T22:01:41;8.55;;;4.30;;
45318;SDS011;31057;48.498;32.260;2023-02-18T22:05:45;10.70;;;4.47;;
45318;SDS011;31057;48.498;32.260;2023-02-18T22:07:49;9.52;;;4.57;;
45318;SDS011;31057;48.498;32.260;2023-02-18T22:09:51;8.93;;;4.40;;
45318;SDS011;31057;48.498;32.260;2023-02-18T22:11:54;11.35;;;4.28;;
45318;SDS011;31057;48.498;32.260;2023-02-18T22:15:58;10.38;;;4.05;;
45318;SDS011;31057;48.498;32.260;2023-02-18T22:18:00;11.48;;;4.35;;
45318;SDS011;31057;48.498;32.260;2023-02-18T22:20:02;10.45;;;3.78;;
45318;SDS011;31057;48.498;32.260;2023-02-18T22:22:08;11.63;;;4.22;;
45318;SDS011;31057;48.498;32.260;2023-02-18T22:26:16;12.85;;;4.90;;
45318;SDS011;31057;48.498;32.260;2023-02-18T22:28:18;9.10;;;4.22;;
45318;SDS011;31057;48.498;32.260;2023-02-18T22:30:20;10.38;;;5.13;;
45318;SDS011;31057;48.498;32.260;2023-02-18T22:32:22;10.77;;;4.95;;
45318;SDS011;31057;48.498;32.260;2023-02-18T22:34:24;8.88;;;4.75;;
45318;SDS011;31057;48.498;32.260;2023-02-18T22:36:27;10.65;;;4.22;;
45318;SDS011;31057;48.498;32.260;2023-02-18T22:38:31;14.73;;;6.32;;
45318;SDS011;31057;48.498;32.260;2023-02-18T22:40:35;13.30;;;5.05;;
45318;SDS011;31057;48.498;32.260;2023-02-18T22:42:39;8.68;;;4.03;;
45318;SDS011;31057;48.498;32.260;2023-02-18T22:44:41;10.23;;;6.18;;
45318;SDS011;31057;48.498;32.260;2023-02-18T22:46:48;11.65;;;6.20;;
45318;SDS011;31057;48.498;32.260;2023-02-18T22:48:52;6.50;;;4.50;;
45318;SDS011;31057;48.498;32.260;2023-02-18T22:50:55;16.23;;;5.75;;
45318;SDS011;31057;48.498;32.260;2023-02-18T22:53:03;16.25;;;8.60;;
45318;SDS011;31057;48.498;32.260;2023-02-18T22:55:05;23.63;;;12.32;;
45318;SDS011;31057;48.498;32.260;2023-02-18T22:59:10;12.70;;;6.40;;
45318;SDS011;31057;48.498;32.260;2023-02-18T23:03:22;9.95;;;6.15;;
45318;SDS011;31057;48.498;32.260;2023-02-18T23:05:29;14.15;;;5.40;;
45318;SDS011;31057;48.498;32.260;2023-02-18T23:07:33;11.23;;;5.38;;
45318;SDS011;31057;48.498;32.260;2023-02-18T23:09:38;11.68;;;5.20;;
45318;SDS011;31057;48.498;32.260;2023-02-18T23:13:41;8.15;;;4.88;;
45318;SDS011;31057;48.498;32.260;2023-02-18T23:15:44;10.43;;;5.32;;
45318;SDS011;31057;48.498;32.260;2023-02-18T23:17:56;12.23;;;4.72;;
45318;SDS011;31057;48.498;32.260;2023-02-18T23:19:58;9.98;;;5.10;;
45318;SDS011;31057;48.498;32.260;2023-02-18T23:22:00;8.57;;;4.82;;
45318;SDS011;31057;48.498;32.260;2023-02-18T23:24:02;13.45;;;5.00;;
45318;SDS011;31057;48.498;32.260;2023-02-18T23:26:05;8.43;;;4.13;;
45318;SDS011;31057;48.498;32.260;2023-02-18T23:28:11;10.73;;;5.80;;
45318;SDS011;31057;48.498;32.260;2023-02-18T23:30:13;16.45;;;5.28;;
45318;SDS011;31057;48.498;32.260;2023-02-18T23:32:16;12.15;;;4.93;;